Cove Spring, Texas
Current Conditions -  °F | °C
As of 7:55 PM on Friday 21 Nov 2014 (Local Time) from KJSO Reporting Station
Overcast Overcast  
Wind Chill: 60°   Ceiling: 2400
Heat Index: 60°   Visibility: 10mi
Dew Point: 58°   Wind: 8mph
Humidity: 95%   Direction: 130°SE
Pressure: 30.17"   Gusts: NA
Location:  31.9649°N, 95.3036°W
Report Text: KJSO 220155Z AUTO 13007KT 10SM SCT014 OVC024 15/15 A3017 RMK AO2 T01550147
Loading
Personal Weather Stations






























Interactive Weather Map New forecast layout! Learn more

10-Day Weather Forecast

Advertisements
Track Severe Weather on mobile